Time;durP1;ratioP1;P1;durP2;ratioP2;P2;SDS_P1;SDS_P2;PMS_P1;PMS_P2;Temp;Humidity;BMP_temperature;BMP_pressure;BME280_temperature;BME280_humidity;BME280_pressure;Samples;Min_cycle;Max_cycle;Signal;HPM_P1;HPM_P2
2021/06/19 00:00:00;;;;;;;6.88;5.57;;;27.70;63.20;;;;;;4948715;29;20472;-59
2021/06/19 00:02:26;;;;;;;5.57;5.13;;;27.70;63.20;;;;;;4932682;29;20605;-59
2021/06/19 00:04:52;;;;;;;6.28;5.63;;;27.70;63.20;;;;;;4947927;29;20070;-59
2021/06/19 00:07:18;;;;;;;7.00;6.28;;;27.70;63.30;;;;;;4930658;29;20107;-59
2021/06/19 00:09:44;;;;;;;7.55;6.07;;;27.70;63.20;;;;;;4931072;29;20142;-59
2021/06/19 00:12:10;;;;;;;10.00;6.13;;;27.60;63.20;;;;;;4949979;29;20544;-59
2021/06/19 00:14:37;;;;;;;7.10;5.40;;;27.70;63.30;;;;;;4932965;29;20077;-59
2021/06/19 00:17:04;;;;;;;14.10;6.25;;;27.70;63.20;;;;;;4949847;29;20150;-59
2021/06/19 00:19:30;;;;;;;6.47;5.93;;;27.60;63.10;;;;;;4949603;29;20516;-59
2021/06/19 00:21:55;;;;;;;6.20;5.47;;;27.60;63.20;;;;;;4949746;29;20098;-58
2021/06/19 00:24:23;;;;;;;8.82;6.47;;;27.60;63.20;;;;;;4949967;29;20055;-59
2021/06/19 00:26:50;;;;;;;6.13;5.53;;;27.60;63.30;;;;;;4949902;29;20062;-59
2021/06/19 00:29:16;;;;;;;7.75;6.70;;;27.60;63.40;;;;;;4949996;29;20059;-59
2021/06/19 00:31:43;;;;;;;6.93;5.95;;;27.60;63.30;;;;;;4949595;29;20198;-59
2021/06/19 00:34:10;;;;;;;8.82;6.65;;;27.60;63.40;;;;;;4949875;29;20074;-59
2021/06/19 00:36:36;;;;;;;7.20;6.13;;;27.60;63.40;;;;;;4949451;29;20051;-59
2021/06/19 00:39:04;;;;;;;8.80;6.05;;;27.60;63.40;;;;;;4949992;29;20405;-59
2021/06/19 00:41:30;;;;;;;7.15;5.82;;;27.60;63.30;;;;;;4949614;29;20055;-59
2021/06/19 00:43:56;;;;;;;9.27;5.78;;;27.60;63.30;;;;;;4949769;29;20075;-59
2021/06/19 00:46:22;;;;;;;7.88;6.10;;;27.60;63.40;;;;;;4945857;29;20225;-59
2021/06/19 00:48:48;;;;;;;6.70;5.80;;;27.60;63.40;;;;;;4947580;28;20141;-58
2021/06/19 00:51:14;;;;;;;8.57;6.10;;;27.60;63.40;;;;;;4953305;29;20059;-58
2021/06/19 00:53:40;;;;;;;10.02;6.30;;;27.60;63.30;;;;;;4952956;29;20138;-58
2021/06/19 00:56:07;;;;;;;10.70;6.05;;;27.60;63.40;;;;;;4940425;29;20142;-59
2021/06/19 00:58:33;;;;;;;6.32;5.78;;;27.60;63.40;;;;;;4949812;29;20546;-59
2021/06/19 01:00:59;;;;;;;6.97;6.15;;;27.60;63.50;;;;;;4953019;29;20130;-59
2021/06/19 01:03:25;;;;;;;9.02;6.82;;;27.60;63.50;;;;;;4953122;29;20498;-59
2021/06/19 01:05:51;;;;;;;8.57;6.03;;;27.50;63.40;;;;;;4943872;29;20178;-59
2021/06/19 01:08:17;;;;;;;11.75;6.22;;;27.60;63.50;;;;;;4933414;29;20468;-59
2021/06/19 01:10:43;;;;;;;6.88;5.85;;;27.60;63.50;;;;;;4933780;29;20146;-60
2021/06/19 01:13:09;;;;;;;12.77;6.00;;;27.50;63.50;;;;;;4933707;29;20159;-59
2021/06/19 01:15:35;;;;;;;7.07;6.20;;;27.50;63.50;;;;;;4934058;29;20130;-59
2021/06/19 01:18:01;;;;;;;7.97;7.18;;;27.50;63.50;;;;;;4933650;29;20066;-58
2021/06/19 01:20:29;;;;;;;6.88;6.38;;;27.50;63.50;;;;;;4933633;29;20059;-58
2021/06/19 01:22:56;;;;;;;7.05;6.03;;;27.50;63.50;;;;;;4933362;29;20134;-58
2021/06/19 01:25:32;;;;;;;8.10;6.13;;;27.60;63.50;;;;;;4933770;29;20051;-59
2021/06/19 01:28:00;;;;;;;6.80;6.10;;;27.50;63.50;;;;;;4951142;29;20063;-58
2021/06/19 01:30:28;;;;;;;9.07;6.53;;;27.50;63.40;;;;;;4952950;29;20055;-58
2021/06/19 01:32:56;;;;;;;11.70;6.28;;;27.50;64.00;;;;;;4952431;29;20055;-59
2021/06/19 01:35:23;;;;;;;6.78;6.15;;;27.50;63.50;;;;;;4952293;29;20142;-58
2021/06/19 01:37:52;;;;;;;8.27;6.95;;;27.50;63.50;;;;;;4952340;29;20055;-58
2021/06/19 01:40:23;;;;;;;7.25;6.40;;;27.50;63.40;;;;;;4952319;29;20451;-59
2021/06/19 01:42:50;;;;;;;17.17;7.25;;;27.50;63.40;;;;;;4946940;29;20087;-59
2021/06/19 01:45:36;;;;;;;7.03;6.28;;;27.50;63.50;;;;;;4946352;29;20059;-58
2021/06/19 01:48:05;;;;;;;8.35;6.95;;;27.50;63.60;;;;;;4952282;29;20095;-58
2021/06/19 01:50:32;;;;;;;7.00;5.93;;;27.50;63.50;;;;;;4935285;29;20143;-58
2021/06/19 01:53:00;;;;;;;9.25;6.78;;;27.50;63.50;;;;;;4952109;29;20641;-58
2021/06/19 01:55:27;;;;;;;6.97;6.32;;;27.50;63.40;;;;;;4944241;29;20139;-58
2021/06/19 01:57:56;;;;;;;11.23;6.72;;;27.50;63.40;;;;;;4942901;29;20121;-59
2021/06/19 02:00:27;;;;;;;9.00;6.32;;;27.50;63.40;;;;;;4951366;28;20059;-58
2021/06/19 02:02:54;;;;;;;9.25;6.88;;;27.50;63.40;;;;;;4951889;29;20570;-59
2021/06/19 02:05:21;;;;;;;6.88;6.15;;;27.50;63.40;;;;;;4946975;29;20494;-58
2021/06/19 02:07:51;;;;;;;10.27;6.78;;;27.50;63.40;;;;;;4932382;29;20060;-59
2021/06/19 02:10:20;;;;;;;8.82;6.72;;;27.50;63.40;;;;;;4932603;29;20138;-59
2021/06/19 02:12:46;;;;;;;10.57;6.68;;;27.50;63.40;;;;;;4932736;29;20066;-59
2021/06/19 02:15:13;;;;;;;9.75;6.25;;;27.50;63.40;;;;;;4932660;29;20063;-58
2021/06/19 02:17:39;;;;;;;7.32;6.70;;;27.50;63.40;;;;;;4951763;29;20590;-58
2021/06/19 02:20:07;;;;;;;7.40;6.70;;;27.50;63.40;;;;;;4934637;29;20062;-58
2021/06/19 02:22:37;;;;;;;10.70;6.70;;;27.50;63.30;;;;;;4951730;29;20055;-58
2021/06/19 02:25:06;;;;;;;8.40;7.10;;;27.40;63.30;;;;;;4951929;29;20056;-58
2021/06/19 02:27:34;;;;;;;8.10;6.78;;;27.50;63.40;;;;;;4951956;29;20432;-59
2021/06/19 02:30:01;;;;;;;8.50;7.07;;;27.50;63.30;;;;;;4952022;29;20067;-58
2021/06/19 02:32:27;;;;;;;12.00;7.43;;;27.50;63.30;;;;;;4951477;29;20146;-59
2021/06/19 02:34:53;;;;;;;8.45;7.68;;;27.40;63.30;;;;;;4950382;29;20158;-59
2021/06/19 02:37:19;;;;;;;8.20;7.07;;;27.50;63.40;;;;;;4951549;29;20842;-59
2021/06/19 02:39:45;;;;;;;7.10;6.45;;;27.40;63.30;;;;;;4947128;29;20134;-58
2021/06/19 02:42:11;;;;;;;10.90;7.07;;;27.40;63.30;;;;;;4951210;29;20059;-58
2021/06/19 02:44:38;;;;;;;8.38;6.72;;;27.40;63.40;;;;;;4951333;29;20070;-58
2021/06/19 02:47:05;;;;;;;8.50;6.85;;;27.40;63.40;;;;;;4951283;29;20539;-58
2021/06/19 02:49:31;;;;;;;8.23;7.43;;;27.40;63.40;;;;;;4951577;29;20051;-58
2021/06/19 02:51:57;;;;;;;8.23;7.43;;;27.50;63.40;;;;;;4951310;29;20083;-59
2021/06/19 02:54:23;;;;;;;8.05;6.90;;;27.50;63.40;;;;;;4951098;29;20134;-58
2021/06/19 02:56:49;;;;;;;7.85;7.05;;;27.50;63.40;;;;;;4934177;29;20142;-58
2021/06/19 02:59:15;;;;;;;15.73;7.90;;;27.40;63.40;;;;;;4950793;29;20064;-58
2021/06/19 03:01:41;;;;;;;9.38;7.03;;;27.40;63.40;;;;;;4951082;29;20151;-58
2021/06/19 03:04:07;;;;;;;8.38;7.53;;;27.50;63.40;;;;;;4950711;29;20062;-58
2021/06/19 03:06:33;;;;;;;8.98;6.80;;;27.50;63.40;;;;;;4936285;29;20059;-59
2021/06/19 03:09:01;;;;;;;7.80;6.90;;;27.50;63.40;;;;;;4931675;29;20134;-58
2021/06/19 03:11:27;;;;;;;11.35;7.60;;;27.50;63.50;;;;;;4931078;29;20558;-58
2021/06/19 03:13:53;;;;;;;8.20;7.38;;;27.50;63.40;;;;;;4931091;29;20064;-58
2021/06/19 03:16:19;;;;;;;10.23;7.63;;;27.50;63.50;;;;;;4945119;29;20138;-59
2021/06/19 03:18:45;;;;;;;8.82;7.55;;;27.40;63.40;;;;;;4931336;29;20182;-58
2021/06/19 03:21:11;;;;;;;10.63;8.75;;;27.50;63.40;;;;;;4931582;29;20064;-58
2021/06/19 03:23:37;;;;;;;10.77;9.07;;;27.50;63.40;;;;;;4931419;29;20083;-58
2021/06/19 03:26:02;;;;;;;10.55;8.75;;;27.50;63.40;;;;;;4931515;29;20134;-58
2021/06/19 03:28:28;;;;;;;14.05;7.80;;;27.50;63.40;;;;;;4931576;29;20055;-59
2021/06/19 03:30:55;;;;;;;8.70;7.90;;;27.50;63.40;;;;;;4930059;29;20146;-59
2021/06/19 03:33:20;;;;;;;8.65;7.78;;;27.50;63.50;;;;;;4939074;29;20146;-58
2021/06/19 03:35:47;;;;;;;12.10;8.27;;;27.50;63.40;;;;;;4950443;29;20574;-58
2021/06/19 03:38:13;;;;;;;9.30;7.88;;;27.50;63.40;;;;;;4950113;29;20091;-58
2021/06/19 03:40:39;;;;;;;10.70;8.27;;;27.50;63.50;;;;;;4950017;29;20066;-58
2021/06/19 03:43:06;;;;;;;14.60;9.27;;;27.50;63.50;;;;;;4950538;29;20527;-58
2021/06/19 03:45:35;;;;;;;10.32;7.82;;;27.50;63.50;;;;;;4950346;29;20563;-59
2021/06/19 03:48:02;;;;;;;11.60;8.38;;;27.50;63.50;;;;;;4950385;29;20087;-58
2021/06/19 03:50:28;;;;;;;12.25;8.52;;;27.50;63.60;;;;;;4950032;29;20055;-58
2021/06/19 03:52:57;;;;;;;19.33;9.20;;;27.50;63.60;;;;;;4949982;29;20563;-59
2021/06/19 03:55:23;;;;;;;9.55;8.68;;;27.50;63.60;;;;;;4943016;29;20080;-58
2021/06/19 03:57:50;;;;;;;9.65;8.15;;;27.60;63.70;;;;;;4940584;29;20055;-58
2021/06/19 04:00:18;;;;;;;10.15;8.30;;;27.50;63.60;;;;;;4950142;29;20579;-58
2021/06/19 04:02:44;;;;;;;13.55;9.00;;;27.50;63.60;;;;;;4949810;29;20059;-59
2021/06/19 04:05:12;;;;;;;10.07;8.00;;;27.60;63.70;;;;;;4943290;29;20059;-59
2021/06/19 04:07:39;;;;;;;9.50;8.45;;;27.60;63.70;;;;;;4930892;29;20535;-58
2021/06/19 04:10:07;;;;;;;8.02;7.32;;;27.60;63.70;;;;;;4931170;29;20079;-58
2021/06/19 04:12:33;;;;;;;8.57;7.70;;;27.60;63.80;;;;;;4930682;29;20060;-58
2021/06/19 04:14:59;;;;;;;10.63;8.13;;;27.60;63.70;;;;;;4930668;29;20062;-58
2021/06/19 04:17:25;;;;;;;10.25;8.25;;;27.60;63.80;;;;;;4930712;29;20146;-58
2021/06/19 04:19:51;;;;;;;8.70;7.82;;;27.60;63.80;;;;;;4930657;29;20095;-58
2021/06/19 04:22:17;;;;;;;9.02;7.72;;;27.60;63.80;;;;;;4930821;29;20139;-58
2021/06/19 04:24:44;;;;;;;8.07;7.25;;;27.60;63.70;;;;;;4952856;28;20191;-59
2021/06/19 04:27:19;;;;;;;8.43;7.55;;;27.60;63.80;;;;;;4949799;29;20106;-58
2021/06/19 04:29:46;;;;;;;8.98;7.63;;;27.60;63.80;;;;;;4953084;29;20535;-58
2021/06/19 04:32:13;;;;;;;8.10;7.30;;;27.60;63.80;;;;;;4953674;29;20067;-58
2021/06/19 04:34:43;;;;;;;7.85;7.15;;;27.60;63.80;;;;;;4953634;29;20058;-58
2021/06/19 04:37:12;;;;;;;8.57;7.45;;;27.60;63.80;;;;;;4953828;29;20190;-58
2021/06/19 04:39:46;;;;;;;9.80;7.93;;;27.60;63.80;;;;;;4953300;29;20062;-58
2021/06/19 04:42:15;;;;;;;7.53;6.80;;;27.60;63.90;;;;;;4953461;29;20091;-59
2021/06/19 04:47:22;;;;;;;9.90;7.30;;;27.60;63.90;;;;;;4953512;29;20126;-58
2021/06/19 04:49:48;;;;;;;9.02;6.80;;;27.60;63.90;;;;;;4953355;29;20504;-59
2021/06/19 04:52:14;;;;;;;8.90;7.55;;;27.60;63.90;;;;;;4949381;29;20112;-58
2021/06/19 04:54:41;;;;;;;7.63;6.93;;;27.60;63.90;;;;;;4933889;29;20077;-59
2021/06/19 04:57:07;;;;;;;8.57;6.65;;;27.60;64.00;;;;;;4938369;29;20055;-58
2021/06/19 04:59:35;;;;;;;8.77;7.32;;;27.60;64.00;;;;;;4953243;29;20115;-58
2021/06/19 05:02:01;;;;;;;7.65;6.65;;;27.60;64.00;;;;;;4953045;29;20142;-58
2021/06/19 05:04:28;;;;;;;9.45;6.32;;;27.60;64.10;;;;;;4952964;29;20067;-59
2021/06/19 05:06:54;;;;;;;9.00;6.78;;;27.60;64.10;;;;;;4935725;29;20575;-58
2021/06/19 05:09:20;;;;;;;8.43;7.10;;;27.60;64.10;;;;;;4933732;29;20225;-58
2021/06/19 05:11:46;;;;;;;9.25;7.22;;;27.70;64.10;;;;;;4933711;29;20101;-58
2021/06/19 05:14:12;;;;;;;8.40;7.50;;;27.70;64.30;;;;;;4933808;29;20064;-59
2021/06/19 05:16:39;;;;;;;8.80;6.55;;;27.70;64.20;;;;;;4933631;29;20066;-58
2021/06/19 05:19:05;;;;;;;11.43;7.32;;;27.60;64.10;;;;;;4933823;29;20063;-58
2021/06/19 05:21:31;;;;;;;7.32;6.57;;;27.70;64.40;;;;;;4937872;29;20059;-58
2021/06/19 05:23:57;;;;;;;7.45;6.55;;;27.70;64.30;;;;;;4952961;29;20130;-59
2021/06/19 05:26:23;;;;;;;8.02;7.25;;;27.70;64.40;;;;;;4952754;29;20570;-58
2021/06/19 05:28:49;;;;;;;8.13;7.00;;;27.70;64.40;;;;;;4952405;29;20150;-58
2021/06/19 05:31:15;;;;;;;6.25;5.68;;;27.70;64.60;;;;;;4952481;29;20138;-58
2021/06/19 05:33:41;;;;;;;7.18;6.38;;;27.70;64.50;;;;;;4952409;29;20162;-58
2021/06/19 05:36:07;;;;;;;7.93;6.68;;;27.70;64.50;;;;;;4951593;28;20118;-58
2021/06/19 05:38:33;;;;;;;6.97;6.35;;;27.70;64.60;;;;;;4952263;29;20190;-58
2021/06/19 05:40:59;;;;;;;7.35;6.60;;;27.70;64.60;;;;;;4935168;29;20145;-58
2021/06/19 05:43:25;;;;;;;7.30;6.70;;;27.70;64.70;;;;;;4951131;29;20065;-58
2021/06/19 05:45:52;;;;;;;7.65;6.95;;;27.70;64.80;;;;;;4950966;29;20150;-58
2021/06/19 05:48:19;;;;;;;6.93;6.22;;;27.70;64.80;;;;;;4952152;29;20055;-58
2021/06/19 05:50:45;;;;;;;7.47;6.78;;;27.70;64.90;;;;;;4952258;29;20063;-58
2021/06/19 05:53:12;;;;;;;7.15;6.50;;;27.70;64.90;;;;;;4952133;29;20059;-58
2021/06/19 05:55:38;;;;;;;7.40;6.50;;;27.70;64.90;;;;;;4942529;29;20059;-58
2021/06/19 05:58:04;;;;;;;9.20;6.30;;;27.70;65.00;;;;;;4944825;29;20069;-58
2021/06/19 06:00:30;;;;;;;7.60;6.05;;;27.70;65.00;;;;;;4952034;29;20473;-58
2021/06/19 06:02:56;;;;;;;8.27;6.55;;;27.70;65.00;;;;;;4952080;29;20142;-58
2021/06/19 06:05:22;;;;;;;8.95;6.97;;;27.70;65.00;;;;;;4946378;29;20115;-58
2021/06/19 06:07:48;;;;;;;6.63;6.13;;;27.70;65.20;;;;;;4950802;29;20131;-58
2021/06/19 06:10:14;;;;;;;8.15;6.45;;;27.70;65.20;;;;;;4932891;29;20523;-58
2021/06/19 06:12:40;;;;;;;6.32;5.68;;;27.70;65.20;;;;;;4940201;29;20134;-58
2021/06/19 06:15:08;;;;;;;6.97;6.15;;;27.70;65.30;;;;;;4951675;29;20525;-58
2021/06/19 06:17:36;;;;;;;8.38;5.70;;;27.80;65.50;;;;;;4945775;29;20056;-58
2021/06/19 06:20:02;;;;;;;8.52;6.47;;;27.80;65.60;;;;;;4951325;29;20101;-59
2021/06/19 06:22:29;;;;;;;6.82;6.05;;;27.80;65.40;;;;;;4951812;29;20486;-58
2021/06/19 06:24:55;;;;;;;7.72;5.88;;;27.80;66.20;;;;;;4951576;29;20138;-58
2021/06/19 06:27:21;;;;;;;6.28;5.68;;;27.80;65.60;;;;;;4951742;29;20162;-58
2021/06/19 06:29:47;;;;;;;6.10;5.70;;;27.80;65.70;;;;;;4951498;29;20086;-58
2021/06/19 06:32:13;;;;;;;9.60;6.10;;;27.80;65.80;;;;;;4951707;29;20090;-58
2021/06/19 06:34:39;;;;;;;10.02;5.97;;;27.80;65.80;;;;;;4951316;29;20103;-58
2021/06/19 06:37:07;;;;;;;9.20;6.18;;;27.80;65.80;;;;;;4951992;29;20186;-58
2021/06/19 06:39:34;;;;;;;6.95;6.30;;;27.80;66.00;;;;;;4951608;29;20066;-59
2021/06/19 06:42:00;;;;;;;6.30;5.70;;;27.80;65.90;;;;;;4951592;29;20130;-58
2021/06/19 06:44:29;;;;;;;6.15;5.55;;;27.80;66.10;;;;;;4951290;29;20523;-58
2021/06/19 06:46:55;;;;;;;6.47;5.85;;;27.80;66.10;;;;;;4950973;28;20515;-58
2021/06/19 06:49:21;;;;;;;6.38;5.78;;;27.80;65.80;;;;;;4951056;29;20071;-58
2021/06/19 06:51:47;;;;;;;6.15;5.65;;;27.80;65.80;;;;;;4951295;29;20516;-58
2021/06/19 06:54:14;;;;;;;6.97;5.72;;;27.80;65.80;;;;;;4951071;29;20070;-58
2021/06/19 06:56:40;;;;;;;7.53;6.20;;;27.80;65.90;;;;;;4933985;29;20056;-59
2021/06/19 06:59:06;;;;;;;6.95;6.05;;;27.90;65.90;;;;;;4951037;29;20133;-58
2021/06/19 07:01:32;;;;;;;5.65;5.35;;;27.80;65.90;;;;;;4951215;29;20138;-58
2021/06/19 07:03:59;;;;;;;8.55;5.72;;;27.80;65.90;;;;;;4951182;29;20047;-58
2021/06/19 07:06:26;;;;;;;6.38;5.60;;;27.90;66.10;;;;;;4937420;29;20146;-59
2021/06/19 07:08:52;;;;;;;6.53;5.10;;;27.80;66.10;;;;;;4931652;29;20059;-58
2021/06/19 07:11:19;;;;;;;6.32;5.90;;;27.80;66.30;;;;;;4931740;29;20085;-58
2021/06/19 07:13:45;;;;;;;6.20;5.70;;;27.80;66.40;;;;;;4938462;29;20096;-58
2021/06/19 07:16:12;;;;;;;7.68;6.10;;;27.90;66.30;;;;;;4950311;29;20055;-58
2021/06/19 07:18:38;;;;;;;5.90;5.50;;;27.90;66.30;;;;;;4950954;29;20055;-58
2021/06/19 07:21:04;;;;;;;5.25;4.85;;;27.90;66.60;;;;;;4950579;29;20142;-58
2021/06/19 07:23:30;;;;;;;4.80;4.50;;;27.90;66.50;;;;;;4950737;29;20066;-59
2021/06/19 07:25:57;;;;;;;4.80;4.40;;;27.90;66.50;;;;;;4950511;29;20059;-58
2021/06/19 07:28:24;;;;;;;4.22;3.92;;;28.00;66.40;;;;;;4950538;29;20138;-58
2021/06/19 07:30:50;;;;;;;5.40;4.60;;;28.00;66.70;;;;;;4950328;29;20058;-58
2021/06/19 07:33:16;;;;;;;3.97;3.75;;;28.00;66.30;;;;;;4950440;29;20500;-58
2021/06/19 07:35:42;;;;;;;3.42;3.33;;;28.10;67.10;;;;;;4950639;29;20618;-58
2021/06/19 07:38:08;;;;;;;4.93;4.43;;;28.20;66.90;;;;;;4950401;29;20150;-59
2021/06/19 07:40:34;;;;;;;5.00;4.50;;;28.20;66.30;;;;;;4950633;29;20047;-58
2021/06/19 07:43:01;;;;;;;4.63;4.28;;;28.20;66.30;;;;;;4950195;29;20162;-58
2021/06/19 07:45:27;;;;;;;4.90;4.68;;;28.20;66.10;;;;;;4950667;29;20059;-58
2021/06/19 07:47:53;;;;;;;5.35;4.95;;;28.30;66.40;;;;;;4950248;29;20523;-58
2021/06/19 07:50:20;;;;;;;4.85;4.45;;;28.30;66.00;;;;;;4950024;29;20487;-58
2021/06/19 07:52:46;;;;;;;5.55;4.70;;;28.30;66.20;;;;;;4950282;29;20055;-58
2021/06/19 07:55:14;;;;;;;4.97;4.57;;;28.40;66.20;;;;;;4944335;29;20051;-58
2021/06/19 07:57:40;;;;;;;3.70;3.60;;;28.40;66.20;;;;;;4939154;28;20138;-58
2021/06/19 08:00:08;;;;;;;4.35;4.10;;;28.50;66.40;;;;;;4949629;29;20149;-58
2021/06/19 08:02:34;;;;;;;3.80;3.60;;;28.50;66.20;;;;;;4949979;29;20412;-58
2021/06/19 08:05:00;;;;;;;5.53;5.13;;;28.50;66.50;;;;;;4930367;29;20142;-58
2021/06/19 08:07:26;;;;;;;5.03;4.55;;;28.60;66.10;;;;;;4930819;29;20529;-58
2021/06/19 08:09:53;;;;;;;4.80;4.38;;;28.60;66.20;;;;;;4934538;29;20066;-58
2021/06/19 08:12:19;;;;;;;4.75;4.43;;;28.60;66.30;;;;;;4949962;29;20138;-58
2021/06/19 08:14:45;;;;;;;5.22;4.38;;;28.60;66.20;;;;;;4950368;29;20174;-58
2021/06/19 08:17:19;;;;;;;4.80;4.50;;;28.60;66.40;;;;;;4949762;29;20059;-58
2021/06/19 08:19:46;;;;;;;6.47;4.32;;;28.60;66.10;;;;;;4950167;29;20090;-58
2021/06/19 08:22:15;;;;;;;4.72;4.32;;;28.70;66.10;;;;;;4949906;29;20090;-58
2021/06/19 08:24:42;;;;;;;4.85;4.50;;;28.70;66.20;;;;;;4948583;29;20435;-58
2021/06/19 08:27:08;;;;;;;4.40;4.00;;;28.70;66.10;;;;;;4949788;29;20178;-58
2021/06/19 08:29:35;;;;;;;5.10;4.63;;;28.70;66.20;;;;;;4949800;29;20093;-58
2021/06/19 08:32:01;;;;;;;5.13;4.68;;;28.70;66.20;;;;;;4949588;29;20078;-58
2021/06/19 08:34:29;;;;;;;5.20;4.68;;;28.70;66.30;;;;;;4949967;29;20134;-58
2021/06/19 08:36:55;;;;;;;4.00;3.80;;;28.80;66.30;;;;;;4949868;29;20059;-58
2021/06/19 08:39:21;;;;;;;6.70;3.47;;;28.80;66.70;;;;;;4949625;29;20594;-58
2021/06/19 08:41:48;;;;;;;5.20;4.60;;;28.80;66.90;;;;;;4949578;29;20094;-58
2021/06/19 08:44:27;;;;;;;5.43;5.03;;;28.80;66.30;;;;;;4949509;29;20055;-58
2021/06/19 08:46:55;;;;;;;4.43;4.22;;;28.80;66.50;;;;;;4949592;29;20180;-58
2021/06/19 08:49:22;;;;;;;5.47;4.88;;;28.80;66.30;;;;;;4949478;29;20059;-58
2021/06/19 08:51:52;;;;;;;5.15;4.43;;;28.80;66.30;;;;;;4949429;29;20150;-58
2021/06/19 08:54:20;;;;;;;4.90;4.47;;;28.80;66.20;;;;;;4949816;29;20149;-58
2021/06/19 08:56:46;;;;;;;5.18;4.88;;;28.80;66.30;;;;;;4932637;29;20091;-58
2021/06/19 08:59:12;;;;;;;4.70;4.30;;;28.90;66.30;;;;;;4949799;29;20067;-58
2021/06/19 09:01:39;;;;;;;5.63;5.22;;;28.90;66.20;;;;;;4949537;29;20574;-58
2021/06/19 09:04:07;;;;;;;4.60;4.20;;;28.90;66.00;;;;;;4949323;29;20409;-58
2021/06/19 09:06:38;;;;;;;5.97;4.70;;;29.00;66.10;;;;;;4945423;29;20146;-58
2021/06/19 09:09:15;;;;;;;5.00;4.53;;;29.00;66.20;;;;;;4938671;29;20139;-58
2021/06/19 09:11:53;;;;;;;5.03;4.70;;;29.00;66.00;;;;;;4932746;29;20067;-59
2021/06/19 09:14:22;;;;;;;4.10;4.00;;;29.00;66.00;;;;;;4952557;29;20130;-58
2021/06/19 09:17:03;;;;;;;5.35;5.03;;;29.00;66.00;;;;;;4952572;29;20059;-58
2021/06/19 09:19:39;;;;;;;4.65;4.45;;;29.00;66.00;;;;;;4952846;29;20105;-58
2021/06/19 09:22:08;;;;;;;5.13;4.60;;;29.00;66.00;;;;;;4953068;29;20213;-58
2021/06/19 09:24:43;;;;;;;5.90;4.70;;;29.10;66.00;;;;;;4953093;29;20094;-59
2021/06/19 09:27:36;;;;;;;5.65;5.35;;;29.10;66.30;;;;;;4952699;29;20057;-58
2021/06/19 09:30:05;;;;;;;7.13;5.40;;;29.10;65.80;;;;;;4952776;29;20431;-58
2021/06/19 09:32:31;;;;;;;5.03;4.82;;;29.10;65.70;;;;;;4953022;29;20530;-58
2021/06/19 09:35:10;;;;;;;5.38;5.03;;;29.10;65.60;;;;;;4952972;29;20083;-58
2021/06/19 09:37:41;;;;;;;5.13;4.93;;;29.10;65.60;;;;;;4951105;29;20137;-58
2021/06/19 09:40:35;;;;;;;5.13;4.78;;;29.20;65.60;;;;;;4952584;29;20051;-58
2021/06/19 09:43:09;;;;;;;5.70;5.30;;;29.20;65.70;;;;;;4952550;29;20091;-59
2021/06/19 09:45:37;;;;;;;5.50;5.13;;;29.20;65.50;;;;;;4952703;29;20512;-58
2021/06/19 09:48:04;;;;;;;5.85;4.25;;;29.20;65.50;;;;;;4952649;29;20062;-58
2021/06/19 09:50:30;;;;;;;5.57;5.20;;;29.20;65.50;;;;;;4952186;29;20063;-58
2021/06/19 09:53:08;;;;;;;4.90;4.70;;;29.30;65.40;;;;;;4952619;29;20534;-58
2021/06/19 09:55:35;;;;;;;4.30;4.00;;;29.30;65.40;;;;;;4943737;29;20829;-58
2021/06/19 09:58:00;;;;;;;6.65;4.28;;;29.30;65.70;;;;;;4944072;29;20078;-58
2021/06/19 10:00:36;;;;;;;5.10;4.80;;;29.30;65.40;;;;;;4946426;29;20139;-58
2021/06/19 10:03:04;;;;;;;5.05;4.63;;;29.30;65.40;;;;;;4945691;29;20712;-58
2021/06/19 10:05:30;;;;;;;4.90;4.70;;;29.30;65.30;;;;;;4945302;29;20083;-58
2021/06/19 10:07:56;;;;;;;4.55;4.30;;;29.30;65.30;;;;;;4932631;29;20087;-58
2021/06/19 10:10:23;;;;;;;5.18;4.78;;;29.30;65.40;;;;;;4933068;29;20496;-58
2021/06/19 10:12:49;;;;;;;6.15;5.63;;;29.30;65.30;;;;;;4932717;29;20051;-58
2021/06/19 10:15:15;;;;;;;7.43;5.90;;;29.30;65.30;;;;;;4932891;29;20067;-58
2021/06/19 10:17:46;;;;;;;5.00;4.60;;;29.40;65.30;;;;;;4932584;29;20056;-58
2021/06/19 10:20:14;;;;;;;5.18;4.88;;;29.40;65.40;;;;;;4951888;29;20062;-58
2021/06/19 10:22:42;;;;;;;7.28;5.38;;;29.40;65.10;;;;;;4951392;28;20058;-58
2021/06/19 10:25:11;;;;;;;8.27;5.10;;;29.30;65.20;;;;;;4931953;29;20064;-58
2021/06/19 10:27:39;;;;;;;5.28;4.88;;;29.30;65.10;;;;;;4939327;29;20079;-58
2021/06/19 10:30:07;;;;;;;4.97;4.60;;;29.30;65.10;;;;;;4933989;29;20062;-58
2021/06/19 10:32:51;;;;;;;5.15;4.75;;;29.30;65.20;;;;;;4932672;29;20179;-58
2021/06/19 10:35:21;;;;;;;4.95;4.38;;;29.30;65.30;;;;;;4932474;29;20104;-58
2021/06/19 10:37:49;;;;;;;4.90;4.50;;;29.30;65.30;;;;;;4932369;29;20093;-58
2021/06/19 10:40:17;;;;;;;4.88;4.47;;;29.40;65.40;;;;;;4931571;29;20138;-59
2021/06/19 10:42:43;;;;;;;4.95;4.63;;;29.40;65.40;;;;;;4932199;29;20107;-59
2021/06/19 10:45:16;;;;;;;5.35;4.90;;;29.40;65.30;;;;;;4932446;29;20168;-59
2021/06/19 10:47:58;;;;;;;4.95;4.63;;;29.40;65.60;;;;;;4932498;29;20059;-58
2021/06/19 10:50:26;;;;;;;5.55;5.13;;;29.40;65.60;;;;;;4931674;29;20134;-58
2021/06/19 10:53:01;;;;;;;5.18;4.70;;;29.40;65.30;;;;;;4932204;29;20096;-58
2021/06/19 10:55:28;;;;;;;5.53;4.60;;;29.40;65.30;;;;;;4932223;29;20913;-58
2021/06/19 10:58:04;;;;;;;5.25;4.97;;;29.40;65.30;;;;;;4951094;29;20062;-58
2021/06/19 11:00:42;;;;;;;5.60;5.18;;;29.40;65.30;;;;;;4951106;29;20190;-59
2021/06/19 11:03:08;;;;;;;5.85;5.15;;;29.40;65.30;;;;;;4951254;29;20069;-58
2021/06/19 11:05:43;;;;;;;6.68;5.43;;;29.50;65.40;;;;;;4947400;29;20142;-58
2021/06/19 11:08:14;;;;;;;4.90;4.60;;;29.40;65.20;;;;;;4947223;29;20686;-58
2021/06/19 11:10:55;;;;;;;6.03;5.53;;;29.50;65.40;;;;;;4949657;29;20518;-59
2021/06/19 11:13:27;;;;;;;5.72;4.80;;;29.50;65.80;;;;;;4950749;29;20055;-58
2021/06/19 11:15:57;;;;;;;5.55;5.10;;;29.50;65.20;;;;;;4950869;29;20138;-59
2021/06/19 11:18:52;;;;;;;4.95;4.65;;;29.40;65.20;;;;;;4950669;29;20189;-59
2021/06/19 11:21:25;;;;;;;5.70;5.18;;;29.40;65.20;;;;;;4934220;29;20165;-58
2021/06/19 11:24:00;;;;;;;4.35;4.15;;;29.40;65.10;;;;;;4944268;29;20060;-58
2021/06/19 11:29:34;;;;;;;8.85;5.35;;;29.50;66.00;;;;;;4949292;29;20059;-58
2021/06/19 11:32:34;;;;;;;5.03;4.72;;;29.50;65.40;;;;;;4933527;29;20634;-58
2021/06/19 11:35:20;;;;;;;5.43;4.72;;;29.50;65.40;;;;;;4933365;29;20059;-58
2021/06/19 11:37:53;;;;;;;5.55;5.05;;;29.40;65.90;;;;;;4950217;29;20146;-59
2021/06/19 11:40:29;;;;;;;4.28;3.92;;;29.40;65.30;;;;;;4950701;29;20083;-58
2021/06/19 11:42:55;;;;;;;5.22;4.78;;;29.50;65.80;;;;;;4950544;29;20082;-58
2021/06/19 11:45:21;;;;;;;5.63;4.95;;;29.50;65.40;;;;;;4950673;29;20056;-58
2021/06/19 11:48:10;;;;;;;6.53;5.20;;;29.40;65.40;;;;;;4950205;29;20058;-58
2021/06/19 11:50:38;;;;;;;5.38;5.07;;;29.40;65.30;;;;;;4940914;29;20064;-58
2021/06/19 11:53:27;;;;;;;5.88;5.32;;;29.40;65.30;;;;;;4950288;29;20138;-59
2021/06/19 11:56:15;;;;;;;5.43;4.95;;;29.40;65.40;;;;;;4950077;29;20134;-58
2021/06/19 11:58:57;;;;;;;6.10;5.38;;;29.40;65.60;;;;;;4950017;29;20558;-58
2021/06/19 12:01:29;;;;;;;5.85;5.45;;;29.40;65.30;;;;;;4950252;29;20138;-58
2021/06/19 12:04:00;;;;;;;5.88;5.15;;;29.40;65.40;;;;;;4949977;29;20057;-58
2021/06/19 12:06:54;;;;;;;6.20;5.70;;;29.40;65.30;;;;;;4930966;29;20564;-58
2021/06/19 12:09:22;;;;;;;5.32;5.03;;;29.40;65.30;;;;;;4927207;29;20409;-58
2021/06/19 12:11:51;;;;;;;5.88;5.68;;;29.40;65.30;;;;;;4930625;29;20087;-59
2021/06/19 12:14:38;;;;;;;6.50;5.90;;;29.40;65.30;;;;;;4931070;29;20520;-59
2021/06/19 12:17:10;;;;;;;6.68;6.05;;;29.40;65.30;;;;;;4918464;29;20472;-58
2021/06/19 12:19:40;;;;;;;5.50;5.20;;;29.40;65.30;;;;;;4930968;29;20064;-58
2021/06/19 12:22:09;;;;;;;5.95;5.63;;;29.40;65.30;;;;;;4930995;29;20115;-58
2021/06/19 12:24:40;;;;;;;6.75;6.15;;;29.40;65.30;;;;;;4918571;29;20410;-59
2021/06/19 12:27:08;;;;;;;6.30;5.80;;;29.40;65.40;;;;;;4920589;29;20056;-58
2021/06/19 12:29:43;;;;;;;5.97;5.57;;;29.40;65.60;;;;;;4930664;29;20095;-58
2021/06/19 12:32:39;;;;;;;6.15;5.70;;;29.40;65.40;;;;;;4930762;29;20076;-58
2021/06/19 12:35:12;;;;;;;6.63;5.65;;;29.40;65.40;;;;;;4930905;29;20144;-58
2021/06/19 12:37:48;;;;;;;5.80;5.38;;;29.40;65.50;;;;;;4913396;29;20142;-59
2021/06/19 12:40:15;;;;;;;6.93;6.43;;;29.40;65.40;;;;;;4930672;29;20091;-58
2021/06/19 12:43:08;;;;;;;10.18;6.38;;;29.40;65.50;;;;;;4930563;29;20500;-58
2021/06/19 12:45:43;;;;;;;6.32;5.90;;;29.40;65.30;;;;;;4903110;29;20196;-58
2021/06/19 12:48:35;;;;;;;6.43;6.03;;;29.40;65.30;;;;;;4934481;29;20055;-58
2021/06/19 12:51:05;;;;;;;6.20;5.75;;;29.40;65.40;;;;;;4934418;29;20067;-58
2021/06/19 12:53:32;;;;;;;6.20;5.80;;;29.40;65.40;;;;;;4934238;29;20255;-58
2021/06/19 12:56:05;;;;;;;6.70;6.18;;;29.40;65.30;;;;;;4934019;29;20067;-58
2021/06/19 12:58:40;;;;;;;6.03;5.72;;;29.40;65.40;;;;;;4934228;29;20170;-58